sensor_id;sensor_type;location;lat;lon;timestamp;P1;durP1;ratioP1;P2;durP2;ratioP2
5702;SDS011;2876;51.738;10.050;2024-01-27T00:05:00;11.23;;;2.47;;
5702;SDS011;2876;51.738;10.050;2024-01-27T00:11:02;9.10;;;2.17;;
5702;SDS011;2876;51.738;10.050;2024-01-27T00:17:04;8.47;;;2.00;;
5702;SDS011;2876;51.738;10.050;2024-01-27T00:23:07;10.87;;;2.10;;
5702;SDS011;2876;51.738;10.050;2024-01-27T00:29:09;8.20;;;2.40;;
5702;SDS011;2876;51.738;10.050;2024-01-27T00:35:11;13.67;;;4.00;;
5702;SDS011;2876;51.738;10.050;2024-01-27T00:41:16;13.10;;;4.50;;
5702;SDS011;2876;51.738;10.050;2024-01-27T00:47:19;11.67;;;2.90;;
5702;SDS011;2876;51.738;10.050;2024-01-27T00:53:21;11.23;;;3.07;;
5702;SDS011;2876;51.738;10.050;2024-01-27T00:59:23;12.10;;;3.67;;
5702;SDS011;2876;51.738;10.050;2024-01-27T01:05:25;10.43;;;2.50;;
5702;SDS011;2876;51.738;10.050;2024-01-27T01:11:27;15.90;;;3.63;;
5702;SDS011;2876;51.738;10.050;2024-01-27T01:17:29;22.27;;;2.43;;
5702;SDS011;2876;51.738;10.050;2024-01-27T01:23:31;7.25;;;2.80;;
5702;SDS011;2876;51.738;10.050;2024-01-27T01:29:33;4.97;;;2.07;;
5702;SDS011;2876;51.738;10.050;2024-01-27T01:35:36;8.07;;;2.30;;
5702;SDS011;2876;51.738;10.050;2024-01-27T01:41:39;5.07;;;1.70;;
5702;SDS011;2876;51.738;10.050;2024-01-27T01:47:42;10.40;;;2.53;;
5702;SDS011;2876;51.738;10.050;2024-01-27T01:53:48;10.60;;;2.30;;
5702;SDS011;2876;51.738;10.050;2024-01-27T01:59:50;11.53;;;2.80;;
5702;SDS011;2876;51.738;10.050;2024-01-27T02:05:52;9.77;;;2.20;;
5702;SDS011;2876;51.738;10.050;2024-01-27T02:11:56;16.43;;;1.73;;
5702;SDS011;2876;51.738;10.050;2024-01-27T02:17:58;9.73;;;2.50;;
5702;SDS011;2876;51.738;10.050;2024-01-27T02:24:01;24.80;;;3.27;;
5702;SDS011;2876;51.738;10.050;2024-01-27T02:30:03;19.23;;;4.80;;
5702;SDS011;2876;51.738;10.050;2024-01-27T02:36:06;19.33;;;2.33;;
5702;SDS011;2876;51.738;10.050;2024-01-27T02:42:08;9.70;;;2.13;;
5702;SDS011;2876;51.738;10.050;2024-01-27T02:48:10;4.70;;;2.10;;
5702;SDS011;2876;51.738;10.050;2024-01-27T02:54:12;17.20;;;3.00;;
5702;SDS011;2876;51.738;10.050;2024-01-27T03:00:14;18.27;;;3.33;;
5702;SDS011;2876;51.738;10.050;2024-01-27T03:06:16;9.93;;;2.87;;
5702;SDS011;2876;51.738;10.050;2024-01-27T03:12:19;12.20;;;3.30;;
5702;SDS011;2876;51.738;10.050;2024-01-27T03:18:21;12.63;;;3.53;;
5702;SDS011;2876;51.738;10.050;2024-01-27T03:24:23;12.77;;;3.50;;
5702;SDS011;2876;51.738;10.050;2024-01-27T03:30:25;14.80;;;3.40;;
5702;SDS011;2876;51.738;10.050;2024-01-27T03:36:28;19.00;;;3.70;;
5702;SDS011;2876;51.738;10.050;2024-01-27T03:42:30;15.93;;;3.43;;
5702;SDS011;2876;51.738;10.050;2024-01-27T03:48:32;14.60;;;3.42;;
5702;SDS011;2876;51.738;10.050;2024-01-27T03:54:39;21.60;;;3.57;;
5702;SDS011;2876;51.738;10.050;2024-01-27T04:00:41;17.43;;;5.27;;
5702;SDS011;2876;51.738;10.050;2024-01-27T04:06:46;14.57;;;3.40;;
5702;SDS011;2876;51.738;10.050;2024-01-27T04:12:48;26.05;;;5.55;;
5702;SDS011;2876;51.738;10.050;2024-01-27T04:18:51;12.73;;;3.97;;
5702;SDS011;2876;51.738;10.050;2024-01-27T04:24:53;25.80;;;4.33;;
5702;SDS011;2876;51.738;10.050;2024-01-27T04:30:55;26.47;;;5.03;;
5702;SDS011;2876;51.738;10.050;2024-01-27T04:36:57;12.77;;;3.80;;
5702;SDS011;2876;51.738;10.050;2024-01-27T04:42:59;21.80;;;5.87;;
5702;SDS011;2876;51.738;10.050;2024-01-27T04:49:01;26.10;;;6.23;;
5702;SDS011;2876;51.738;10.050;2024-01-27T04:55:03;19.20;;;4.90;;
5702;SDS011;2876;51.738;10.050;2024-01-27T05:01:06;13.93;;;5.50;;
5702;SDS011;2876;51.738;10.050;2024-01-27T05:07:08;26.00;;;5.00;;
5702;SDS011;2876;51.738;10.050;2024-01-27T05:13:10;26.07;;;5.37;;
5702;SDS011;2876;51.738;10.050;2024-01-27T05:19:12;25.57;;;6.20;;
5702;SDS011;2876;51.738;10.050;2024-01-27T05:25:15;14.83;;;4.60;;
5702;SDS011;2876;51.738;10.050;2024-01-27T05:31:18;8.47;;;3.70;;
5702;SDS011;2876;51.738;10.050;2024-01-27T05:37:20;15.20;;;4.67;;
5702;SDS011;2876;51.738;10.050;2024-01-27T05:43:22;15.57;;;4.87;;
5702;SDS011;2876;51.738;10.050;2024-01-27T05:49:24;17.73;;;4.70;;
5702;SDS011;2876;51.738;10.050;2024-01-27T05:55:26;18.70;;;5.37;;
5702;SDS011;2876;51.738;10.050;2024-01-27T06:01:28;12.80;;;5.00;;
5702;SDS011;2876;51.738;10.050;2024-01-27T06:07:30;18.10;;;6.20;;
5702;SDS011;2876;51.738;10.050;2024-01-27T06:13:32;27.20;;;7.60;;
5702;SDS011;2876;51.738;10.050;2024-01-27T06:19:35;24.83;;;7.70;;
5702;SDS011;2876;51.738;10.050;2024-01-27T06:25:39;19.53;;;7.37;;
5702;SDS011;2876;51.738;10.050;2024-01-27T06:31:41;26.83;;;6.95;;
5702;SDS011;2876;51.738;10.050;2024-01-27T06:37:43;30.85;;;10.02;;
5702;SDS011;2876;51.738;10.050;2024-01-27T06:43:45;28.67;;;11.07;;
5702;SDS011;2876;51.738;10.050;2024-01-27T06:49:47;33.45;;;10.98;;
5702;SDS011;2876;51.738;10.050;2024-01-27T06:55:49;31.53;;;11.57;;
5702;SDS011;2876;51.738;10.050;2024-01-27T07:01:52;24.23;;;11.57;;
5702;SDS011;2876;51.738;10.050;2024-01-27T07:07:54;26.67;;;10.90;;
5702;SDS011;2876;51.738;10.050;2024-01-27T07:13:56;23.70;;;11.43;;
5702;SDS011;2876;51.738;10.050;2024-01-27T07:19:59;23.20;;;11.40;;
5702;SDS011;2876;51.738;10.050;2024-01-27T07:26:01;29.63;;;12.97;;
5702;SDS011;2876;51.738;10.050;2024-01-27T07:32:04;22.57;;;12.77;;
5702;SDS011;2876;51.738;10.050;2024-01-27T07:38:09;26.90;;;11.93;;
5702;SDS011;2876;51.738;10.050;2024-01-27T07:44:11;29.73;;;12.98;;
5702;SDS011;2876;51.738;10.050;2024-01-27T07:50:15;27.30;;;12.67;;
5702;SDS011;2876;51.738;10.050;2024-01-27T07:56:17;23.03;;;10.43;;
5702;SDS011;2876;51.738;10.050;2024-01-27T08:02:19;30.53;;;10.80;;
5702;SDS011;2876;51.738;10.050;2024-01-27T08:08:21;26.40;;;10.60;;
5702;SDS011;2876;51.738;10.050;2024-01-27T08:14:23;31.10;;;11.07;;
5702;SDS011;2876;51.738;10.050;2024-01-27T08:20:25;17.87;;;9.10;;
5702;SDS011;2876;51.738;10.050;2024-01-27T08:26:27;20.63;;;8.40;;
5702;SDS011;2876;51.738;10.050;2024-01-27T08:32:29;25.43;;;9.33;;
5702;SDS011;2876;51.738;10.050;2024-01-27T08:38:31;35.77;;;9.07;;
5702;SDS011;2876;51.738;10.050;2024-01-27T08:44:33;22.47;;;8.10;;
5702;SDS011;2876;51.738;10.050;2024-01-27T08:50:35;17.20;;;7.40;;
5702;SDS011;2876;51.738;10.050;2024-01-27T08:56:41;12.90;;;7.40;;
5702;SDS011;2876;51.738;10.050;2024-01-27T09:02:43;20.97;;;8.60;;
5702;SDS011;2876;51.738;10.050;2024-01-27T09:08:46;22.93;;;8.13;;
5702;SDS011;2876;51.738;10.050;2024-01-27T09:14:48;18.03;;;8.70;;
5702;SDS011;2876;51.738;10.050;2024-01-27T09:20:50;17.07;;;8.53;;
5702;SDS011;2876;51.738;10.050;2024-01-27T09:26:52;22.70;;;7.30;;
5702;SDS011;2876;51.738;10.050;2024-01-27T09:32:54;20.67;;;7.80;;
5702;SDS011;2876;51.738;10.050;2024-01-27T09:38:56;13.50;;;6.33;;
5702;SDS011;2876;51.738;10.050;2024-01-27T09:45:00;20.70;;;5.80;;
5702;SDS011;2876;51.738;10.050;2024-01-27T09:51:05;14.40;;;7.03;;
5702;SDS011;2876;51.738;10.050;2024-01-27T09:57:09;20.83;;;5.20;;
5702;SDS011;2876;51.738;10.050;2024-01-27T10:03:14;15.00;;;5.17;;
5702;SDS011;2876;51.738;10.050;2024-01-27T10:09:18;13.50;;;4.70;;
5702;SDS011;2876;51.738;10.050;2024-01-27T10:15:20;13.60;;;4.57;;
5702;SDS011;2876;51.738;10.050;2024-01-27T10:21:23;15.23;;;4.90;;
5702;SDS011;2876;51.738;10.050;2024-01-27T10:27:27;14.03;;;4.20;;
5702;SDS011;2876;51.738;10.050;2024-01-27T10:33:30;12.73;;;4.00;;
5702;SDS011;2876;51.738;10.050;2024-01-27T10:39:33;14.10;;;3.77;;
5702;SDS011;2876;51.738;10.050;2024-01-27T10:45:36;12.10;;;4.40;;
5702;SDS011;2876;51.738;10.050;2024-01-27T10:51:43;18.33;;;4.23;;
5702;SDS011;2876;51.738;10.050;2024-01-27T10:57:47;15.07;;;4.47;;
5702;SDS011;2876;51.738;10.050;2024-01-27T11:03:51;14.60;;;3.00;;
5702;SDS011;2876;51.738;10.050;2024-01-27T11:09:55;12.30;;;3.30;;
5702;SDS011;2876;51.738;10.050;2024-01-27T11:15:57;15.97;;;3.70;;
5702;SDS011;2876;51.738;10.050;2024-01-27T11:22:02;7.55;;;2.88;;
5702;SDS011;2876;51.738;10.050;2024-01-27T11:28:12;16.52;;;3.40;;
5702;SDS011;2876;51.738;10.050;2024-01-27T11:34:17;10.03;;;2.87;;
5702;SDS011;2876;51.738;10.050;2024-01-27T11:40:22;9.48;;;3.30;;
5702;SDS011;2876;51.738;10.050;2024-01-27T11:46:24;13.40;;;3.90;;
5702;SDS011;2876;51.738;10.050;2024-01-27T11:52:27;13.27;;;3.50;;
5702;SDS011;2876;51.738;10.050;2024-01-27T11:58:30;20.50;;;3.40;;
5702;SDS011;2876;51.738;10.050;2024-01-27T12:04:32;9.17;;;2.60;;
5702;SDS011;2876;51.738;10.050;2024-01-27T12:10:35;17.97;;;3.10;;
5702;SDS011;2876;51.738;10.050;2024-01-27T12:16:38;14.83;;;3.33;;
5702;SDS011;2876;51.738;10.050;2024-01-27T12:22:40;8.33;;;2.67;;
5702;SDS011;2876;51.738;10.050;2024-01-27T12:28:45;13.83;;;4.80;;
5702;SDS011;2876;51.738;10.050;2024-01-27T12:34:48;8.80;;;3.13;;
5702;SDS011;2876;51.738;10.050;2024-01-27T12:40:52;11.93;;;3.33;;
5702;SDS011;2876;51.738;10.050;2024-01-27T12:46:54;10.03;;;2.60;;
5702;SDS011;2876;51.738;10.050;2024-01-27T12:52:56;8.30;;;2.50;;
5702;SDS011;2876;51.738;10.050;2024-01-27T12:58:57;10.60;;;3.40;;
5702;SDS011;2876;51.738;10.050;2024-01-27T13:05:00;16.77;;;5.07;;
5702;SDS011;2876;51.738;10.050;2024-01-27T13:11:02;18.30;;;3.47;;
5702;SDS011;2876;51.738;10.050;2024-01-27T13:17:04;9.03;;;2.57;;
5702;SDS011;2876;51.738;10.050;2024-01-27T13:23:06;6.03;;;2.57;;
5702;SDS011;2876;51.738;10.050;2024-01-27T13:29:09;18.37;;;4.70;;
5702;SDS011;2876;51.738;10.050;2024-01-27T13:35:10;11.77;;;4.93;;
5702;SDS011;2876;51.738;10.050;2024-01-27T13:41:13;8.00;;;2.67;;
5702;SDS011;2876;51.738;10.050;2024-01-27T13:47:15;10.33;;;2.70;;
5702;SDS011;2876;51.738;10.050;2024-01-27T13:53:17;15.35;;;4.82;;
5702;SDS011;2876;51.738;10.050;2024-01-27T13:59:20;8.27;;;2.60;;
5702;SDS011;2876;51.738;10.050;2024-01-27T14:05:22;9.13;;;2.20;;
5702;SDS011;2876;51.738;10.050;2024-01-27T14:11:24;10.00;;;2.70;;
5702;SDS011;2876;51.738;10.050;2024-01-27T14:17:26;20.30;;;3.70;;
5702;SDS011;2876;51.738;10.050;2024-01-27T14:23:28;7.88;;;2.60;;
5702;SDS011;2876;51.738;10.050;2024-01-27T14:29:30;7.10;;;2.40;;
5702;SDS011;2876;51.738;10.050;2024-01-27T14:35:33;9.30;;;2.90;;
5702;SDS011;2876;51.738;10.050;2024-01-27T14:41:35;10.90;;;2.95;;
5702;SDS011;2876;51.738;10.050;2024-01-27T14:47:40;7.57;;;2.37;;
5702;SDS011;2876;51.738;10.050;2024-01-27T14:53:42;15.13;;;2.90;;
5702;SDS011;2876;51.738;10.050;2024-01-27T14:59:44;12.77;;;2.03;;
5702;SDS011;2876;51.738;10.050;2024-01-27T15:05:46;8.80;;;2.63;;
5702;SDS011;2876;51.738;10.050;2024-01-27T15:11:49;6.37;;;2.13;;
5702;SDS011;2876;51.738;10.050;2024-01-27T15:17:52;8.00;;;2.33;;
5702;SDS011;2876;51.738;10.050;2024-01-27T15:24:01;11.03;;;2.93;;
5702;SDS011;2876;51.738;10.050;2024-01-27T15:30:03;8.53;;;4.10;;
5702;SDS011;2876;51.738;10.050;2024-01-27T15:36:08;13.63;;;3.50;;
5702;SDS011;2876;51.738;10.050;2024-01-27T15:42:10;12.10;;;3.10;;
5702;SDS011;2876;51.738;10.050;2024-01-27T15:48:13;9.37;;;2.73;;
5702;SDS011;2876;51.738;10.050;2024-01-27T15:54:15;14.30;;;3.90;;
5702;SDS011;2876;51.738;10.050;2024-01-27T16:00:19;15.77;;;2.77;;
5702;SDS011;2876;51.738;10.050;2024-01-27T16:06:22;10.77;;;2.57;;
5702;SDS011;2876;51.738;10.050;2024-01-27T16:12:25;11.27;;;2.58;;
5702;SDS011;2876;51.738;10.050;2024-01-27T16:18:27;9.00;;;2.80;;
5702;SDS011;2876;51.738;10.050;2024-01-27T16:24:29;6.50;;;2.30;;
5702;SDS011;2876;51.738;10.050;2024-01-27T16:30:31;11.30;;;2.87;;
5702;SDS011;2876;51.738;10.050;2024-01-27T16:36:33;10.77;;;2.23;;
5702;SDS011;2876;51.738;10.050;2024-01-27T16:42:35;20.73;;;2.40;;
5702;SDS011;2876;51.738;10.050;2024-01-27T16:48:39;9.20;;;2.17;;
5702;SDS011;2876;51.738;10.050;2024-01-27T16:54:41;7.13;;;2.10;;
5702;SDS011;2876;51.738;10.050;2024-01-27T17:00:43;6.10;;;1.77;;
5702;SDS011;2876;51.738;10.050;2024-01-27T17:06:45;8.98;;;2.05;;
5702;SDS011;2876;51.738;10.050;2024-01-27T17:12:48;10.27;;;3.07;;
5702;SDS011;2876;51.738;10.050;2024-01-27T17:18:49;8.87;;;3.57;;
5702;SDS011;2876;51.738;10.050;2024-01-27T17:24:52;22.15;;;3.72;;
5702;SDS011;2876;51.738;10.050;2024-01-27T17:30:54;7.73;;;3.07;;
5702;SDS011;2876;51.738;10.050;2024-01-27T17:36:56;15.95;;;3.50;;
5702;SDS011;2876;51.738;10.050;2024-01-27T17:42:59;10.67;;;3.10;;
5702;SDS011;2876;51.738;10.050;2024-01-27T17:49:03;8.93;;;3.47;;
5702;SDS011;2876;51.738;10.050;2024-01-27T17:55:08;16.50;;;9.10;;
5702;SDS011;2876;51.738;10.050;2024-01-27T18:01:11;9.87;;;3.27;;
5702;SDS011;2876;51.738;10.050;2024-01-27T18:07:14;10.10;;;3.10;;
5702;SDS011;2876;51.738;10.050;2024-01-27T18:13:16;9.80;;;3.40;;
5702;SDS011;2876;51.738;10.050;2024-01-27T18:19:18;10.40;;;3.70;;
5702;SDS011;2876;51.738;10.050;2024-01-27T18:25:23;15.30;;;2.63;;
5702;SDS011;2876;51.738;10.050;2024-01-27T18:31:25;9.55;;;2.83;;
5702;SDS011;2876;51.738;10.050;2024-01-27T18:37:27;11.03;;;2.63;;
5702;SDS011;2876;51.738;10.050;2024-01-27T18:43:30;12.87;;;2.90;;
5702;SDS011;2876;51.738;10.050;2024-01-27T18:49:31;9.47;;;2.30;;
5702;SDS011;2876;51.738;10.050;2024-01-27T18:55:34;8.63;;;2.95;;
5702;SDS011;2876;51.738;10.050;2024-01-27T19:01:39;6.87;;;2.97;;
5702;SDS011;2876;51.738;10.050;2024-01-27T19:07:41;15.50;;;3.13;;
5702;SDS011;2876;51.738;10.050;2024-01-27T19:13:44;5.82;;;2.20;;
5702;SDS011;2876;51.738;10.050;2024-01-27T19:19:46;11.52;;;3.70;;
5702;SDS011;2876;51.738;10.050;2024-01-27T19:25:49;11.97;;;2.93;;
5702;SDS011;2876;51.738;10.050;2024-01-27T19:31:51;9.80;;;2.90;;
5702;SDS011;2876;51.738;10.050;2024-01-27T19:37:55;8.07;;;4.00;;
5702;SDS011;2876;51.738;10.050;2024-01-27T19:43:59;13.27;;;4.37;;
5702;SDS011;2876;51.738;10.050;2024-01-27T19:50:02;13.20;;;4.10;;
5702;SDS011;2876;51.738;10.050;2024-01-27T19:56:06;8.43;;;3.63;;
5702;SDS011;2876;51.738;10.050;2024-01-27T20:02:09;11.40;;;4.50;;
5702;SDS011;2876;51.738;10.050;2024-01-27T20:08:12;11.07;;;4.80;;
5702;SDS011;2876;51.738;10.050;2024-01-27T20:14:14;10.93;;;4.33;;
5702;SDS011;2876;51.738;10.050;2024-01-27T20:20:18;16.37;;;4.03;;
5702;SDS011;2876;51.738;10.050;2024-01-27T20:26:23;21.30;;;4.40;;
5702;SDS011;2876;51.738;10.050;2024-01-27T20:32:25;33.10;;;13.10;;
5702;SDS011;2876;51.738;10.050;2024-01-27T20:38:28;13.40;;;5.07;;
5702;SDS011;2876;51.738;10.050;2024-01-27T20:44:30;15.03;;;4.87;;
5702;SDS011;2876;51.738;10.050;2024-01-27T20:50:32;8.40;;;4.90;;
5702;SDS011;2876;51.738;10.050;2024-01-27T20:56:34;29.60;;;14.00;;
5702;SDS011;2876;51.738;10.050;2024-01-27T21:02:36;22.57;;;5.97;;
5702;SDS011;2876;51.738;10.050;2024-01-27T21:08:38;38.30;;;15.53;;
5702;SDS011;2876;51.738;10.050;2024-01-27T21:14:40;21.90;;;4.93;;
5702;SDS011;2876;51.738;10.050;2024-01-27T21:20:42;17.37;;;7.30;;
5702;SDS011;2876;51.738;10.050;2024-01-27T21:26:44;27.73;;;6.23;;
5702;SDS011;2876;51.738;10.050;2024-01-27T21:32:46;14.60;;;4.70;;
5702;SDS011;2876;51.738;10.050;2024-01-27T21:38:48;57.33;;;23.07;;
5702;SDS011;2876;51.738;10.050;2024-01-27T21:44:50;20.17;;;6.13;;
5702;SDS011;2876;51.738;10.050;2024-01-27T21:50:52;14.37;;;4.90;;
5702;SDS011;2876;51.738;10.050;2024-01-27T21:56:54;13.80;;;5.57;;
5702;SDS011;2876;51.738;10.050;2024-01-27T22:02:57;15.60;;;4.18;;
5702;SDS011;2876;51.738;10.050;2024-01-27T22:08:59;18.80;;;5.00;;
5702;SDS011;2876;51.738;10.050;2024-01-27T22:15:01;11.30;;;4.93;;
5702;SDS011;2876;51.738;10.050;2024-01-27T22:21:08;15.47;;;5.60;;
5702;SDS011;2876;51.738;10.050;2024-01-27T22:27:10;9.03;;;6.20;;
5702;SDS011;2876;51.738;10.050;2024-01-27T22:33:12;17.23;;;6.80;;
5702;SDS011;2876;51.738;10.050;2024-01-27T22:39:14;12.13;;;6.40;;
5702;SDS011;2876;51.738;10.050;2024-01-27T22:45:16;18.37;;;7.53;;
5702;SDS011;2876;51.738;10.050;2024-01-27T22:51:20;15.67;;;6.27;;
5702;SDS011;2876;51.738;10.050;2024-01-27T22:57:22;16.77;;;7.43;;
5702;SDS011;2876;51.738;10.050;2024-01-27T23:03:24;15.37;;;6.10;;
5702;SDS011;2876;51.738;10.050;2024-01-27T23:09:26;11.30;;;6.47;;
5702;SDS011;2876;51.738;10.050;2024-01-27T23:15:28;10.90;;;6.90;;
5702;SDS011;2876;51.738;10.050;2024-01-27T23:21:30;14.30;;;6.87;;
5702;SDS011;2876;51.738;10.050;2024-01-27T23:27:33;27.83;;;7.30;;
5702;SDS011;2876;51.738;10.050;2024-01-27T23:33:35;13.13;;;6.37;;
5702;SDS011;2876;51.738;10.050;2024-01-27T23:39:37;17.63;;;6.63;;
5702;SDS011;2876;51.738;10.050;2024-01-27T23:45:39;21.75;;;5.82;;
5702;SDS011;2876;51.738;10.050;2024-01-27T23:51:41;18.73;;;6.33;;
5702;SDS011;2876;51.738;10.050;2024-01-27T23:57:43;17.02;;;4.72;;
